Time;durP1;ratioP1;P1;durP2;ratioP2;P2;SDS_P1;SDS_P2;PMS_P1;PMS_P2;Temp;Humidity;BMP_temperature;BMP_pressure;BME280_temperature;BME280_humidity;BME280_pressure;Samples;Min_cycle;Max_cycle;Signal;HPM_P1;HPM_P2
2023/12/09 00:00:57;;;;;;;21.87;7.10;;;;;;;;;;5025344;28;20956;-63
2023/12/09 00:03:22;;;;;;;19.97;6.30;;;;;;;;;;5015316;28;20410;-63
2023/12/09 00:05:47;;;;;;;19.63;6.33;;;;;;;;;;5020544;28;20395;-63
2023/12/09 00:08:13;;;;;;;24.67;7.53;;;;;;;;;;5020341;28;20521;-63
2023/12/09 00:10:38;;;;;;;22.87;6.90;;;;;;;;;;5025299;28;20424;-63
2023/12/09 00:13:03;;;;;;;20.37;6.97;;;;;;;;;;5039753;28;20405;-63
2023/12/09 00:15:29;;;;;;;19.97;6.00;;;;;;;;;;5039942;28;20389;-63
2023/12/09 00:17:54;;;;;;;20.35;6.28;;;;;;;;;;5020797;28;20498;-63
2023/12/09 00:20:19;;;;;;;22.77;6.80;;;;;;;;;;5012242;28;22263;-63
2023/12/09 00:22:44;;;;;;;20.73;6.43;;;;;;;;;;5012761;28;20399;-63
2023/12/09 00:25:10;;;;;;;23.07;6.90;;;;;;;;;;5031880;28;20393;-63
2023/12/09 00:27:35;;;;;;;21.97;6.87;;;;;;;;;;5029786;28;20403;-63
2023/12/09 00:30:00;;;;;;;20.67;6.67;;;;;;;;;;5019465;28;20446;-64
2023/12/09 00:32:25;;;;;;;20.90;6.97;;;;;;;;;;5020110;28;20806;-63
2023/12/09 00:34:51;;;;;;;22.80;6.80;;;;;;;;;;5019912;28;20411;-63
2023/12/09 00:37:16;;;;;;;22.20;6.83;;;;;;;;;;5023820;28;20489;-63
2023/12/09 00:39:41;;;;;;;19.90;6.27;;;;;;;;;;5019679;28;20398;-63
2023/12/09 00:42:07;;;;;;;23.20;6.60;;;;;;;;;;5034090;28;20784;-63
2023/12/09 00:44:32;;;;;;;19.33;6.67;;;;;;;;;;5049251;28;20400;-63
2023/12/09 00:46:57;;;;;;;22.27;6.33;;;;;;;;;;5048900;28;20487;-63
2023/12/09 00:49:23;;;;;;;21.63;6.33;;;;;;;;;;5048835;28;20381;-63
2023/12/09 00:51:48;;;;;;;22.13;6.20;;;;;;;;;;5049141;28;20919;-63
2023/12/09 00:54:13;;;;;;;22.33;7.70;;;;;;;;;;5048359;28;20764;-63
2023/12/09 00:56:39;;;;;;;23.37;6.50;;;;;;;;;;5049514;28;20405;-63
2023/12/09 00:59:04;;;;;;;22.27;6.57;;;;;;;;;;5048177;28;20963;-63
2023/12/09 01:01:30;;;;;;;21.25;5.97;;;;;;;;;;5031715;28;20397;-63
2023/12/09 01:03:55;;;;;;;21.53;6.13;;;;;;;;;;5049357;28;20394;-63
2023/12/09 01:06:20;;;;;;;22.83;6.50;;;;;;;;;;5047887;28;20896;-63
2023/12/09 01:08:46;;;;;;;19.80;6.23;;;;;;;;;;5057327;28;20425;-63
2023/12/09 01:11:11;;;;;;;21.30;6.47;;;;;;;;;;5038731;28;20405;-63
2023/12/09 01:13:36;;;;;;;23.83;6.90;;;;;;;;;;5055542;28;20605;-63
2023/12/09 01:16:02;;;;;;;24.40;6.50;;;;;;;;;;5068892;28;20392;-64
2023/12/09 01:18:28;;;;;;;22.35;6.70;;;;;;;;;;5072245;28;20399;-63
2023/12/09 01:20:53;;;;;;;23.30;7.10;;;;;;;;;;5072057;28;20406;-63
2023/12/09 01:23:18;;;;;;;23.80;6.60;;;;;;;;;;5071232;28;20442;-63
2023/12/09 01:25:44;;;;;;;23.13;6.33;;;;;;;;;;5052921;28;20455;-63
2023/12/09 01:28:09;;;;;;;21.20;6.93;;;;;;;;;;5047331;28;20390;-63
2023/12/09 01:30:34;;;;;;;23.47;6.27;;;;;;;;;;5053170;28;20409;-63
2023/12/09 01:32:59;;;;;;;23.17;6.87;;;;;;;;;;5052770;28;20992;-63
2023/12/09 01:35:25;;;;;;;18.43;6.10;;;;;;;;;;5060659;28;20376;-63
2023/12/09 01:37:50;;;;;;;21.80;6.50;;;;;;;;;;5052760;28;20441;-63
2023/12/09 01:40:15;;;;;;;22.37;5.80;;;;;;;;;;5051958;28;20409;-63
2023/12/09 01:42:42;;;;;;;18.80;5.70;;;;;;;;;;5051989;28;20897;-63
2023/12/09 01:45:07;;;;;;;22.90;6.07;;;;;;;;;;5052012;28;20402;-63
2023/12/09 01:47:35;;;;;;;20.15;6.10;;;;;;;;;;5052695;28;20393;-63
2023/12/09 01:50:00;;;;;;;20.75;6.25;;;;;;;;;;5050924;28;20920;-65
2023/12/09 01:52:25;;;;;;;21.17;6.00;;;;;;;;;;5052351;28;20469;-63
2023/12/09 01:54:51;;;;;;;23.00;6.27;;;;;;;;;;5034452;28;20668;-63
2023/12/09 01:57:16;;;;;;;21.27;6.70;;;;;;;;;;5051350;28;20397;-63
2023/12/09 01:59:41;;;;;;;21.70;6.07;;;;;;;;;;5052662;28;20396;-63
2023/12/09 02:02:07;;;;;;;20.53;6.23;;;;;;;;;;5051780;28;20484;-63
2023/12/09 02:04:32;;;;;;;21.10;5.65;;;;;;;;;;5051607;28;20400;-63
2023/12/09 02:06:57;;;;;;;21.57;6.33;;;;;;;;;;5052106;28;20768;-63
2023/12/09 02:09:22;;;;;;;22.10;6.47;;;;;;;;;;5050830;28;20417;-63
2023/12/09 02:11:52;;;;;;;20.70;6.23;;;;;;;;;;5052259;28;20428;-63
2023/12/09 02:14:18;;;;;;;19.20;6.10;;;;;;;;;;5051714;28;20398;-63
2023/12/09 02:16:46;;;;;;;20.13;6.13;;;;;;;;;;5033752;28;20463;-63
2023/12/09 02:19:12;;;;;;;22.25;6.05;;;;;;;;;;5051383;28;20398;-63
2023/12/09 02:22:01;;;;;;;22.40;6.20;;;;;;;;;;5052081;28;20396;-63
2023/12/09 02:24:26;;;;;;;21.63;6.10;;;;;;;;;;5050845;28;20394;-63
2023/12/09 02:26:51;;;;;;;21.23;6.10;;;;;;;;;;5047307;28;20799;-62
2023/12/09 02:29:17;;;;;;;22.50;5.97;;;;;;;;;;5050115;28;20401;-63
2023/12/09 02:31:42;;;;;;;22.08;6.03;;;;;;;;;;5051219;28;20448;-63
2023/12/09 02:34:07;;;;;;;20.27;6.30;;;;;;;;;;5033768;28;20422;-62
2023/12/09 02:36:33;;;;;;;20.07;6.33;;;;;;;;;;5042238;28;20381;-62
2023/12/09 02:38:58;;;;;;;22.70;6.80;;;;;;;;;;5021241;28;20405;-62
2023/12/09 02:41:23;;;;;;;20.30;6.20;;;;;;;;;;5014640;28;20418;-62
2023/12/09 02:43:49;;;;;;;19.80;6.00;;;;;;;;;;5014591;28;20884;-62
2023/12/09 02:46:14;;;;;;;20.03;6.07;;;;;;;;;;5015288;28;20409;-62
2023/12/09 02:48:39;;;;;;;20.23;5.80;;;;;;;;;;5022365;28;20422;-62
2023/12/09 02:51:05;;;;;;;18.25;5.90;;;;;;;;;;5040312;28;20515;-62
2023/12/09 02:53:31;;;;;;;19.52;5.68;;;;;;;;;;5022788;28;20403;-62
2023/12/09 02:55:56;;;;;;;19.60;6.00;;;;;;;;;;5034701;28;21011;-62
2023/12/09 02:58:21;;;;;;;24.30;6.20;;;;;;;;;;5021398;28;20477;-62
2023/12/09 03:00:46;;;;;;;19.70;5.90;;;;;;;;;;5021468;28;20395;-62
2023/12/09 03:03:12;;;;;;;19.47;5.67;;;;;;;;;;5014576;28;20406;-62
2023/12/09 03:05:37;;;;;;;16.07;5.70;;;;;;;;;;5013170;28;20483;-62
2023/12/09 03:08:02;;;;;;;20.30;6.10;;;;;;;;;;5032206;28;20626;-62
2023/12/09 03:10:28;;;;;;;19.57;5.97;;;;;;;;;;5040224;28;20761;-62
2023/12/09 03:12:53;;;;;;;21.07;5.43;;;;;;;;;;5033839;28;20470;-62
2023/12/09 03:15:18;;;;;;;19.33;5.77;;;;;;;;;;5021142;28;20422;-62
2023/12/09 03:17:44;;;;;;;19.83;5.97;;;;;;;;;;5021236;28;20399;-62
2023/12/09 03:20:10;;;;;;;18.90;5.85;;;;;;;;;;5039775;28;20402;-62
2023/12/09 03:22:35;;;;;;;20.57;6.10;;;;;;;;;;5040686;28;20404;-62
2023/12/09 03:25:00;;;;;;;18.50;5.33;;;;;;;;;;5023269;28;20399;-62
2023/12/09 03:27:26;;;;;;;20.05;6.22;;;;;;;;;;5027468;28;20468;-62
2023/12/09 03:29:51;;;;;;;18.90;5.90;;;;;;;;;;5015246;28;21414;-62
2023/12/09 03:32:16;;;;;;;16.10;5.27;;;;;;;;;;5023961;28;20410;-62
2023/12/09 03:34:43;;;;;;;22.97;6.77;;;;;;;;;;5021311;28;20453;-62
2023/12/09 03:37:08;;;;;;;18.03;6.00;;;;;;;;;;5020817;28;20407;-62
2023/12/09 03:39:34;;;;;;;21.55;5.70;;;;;;;;;;5039492;28;20441;-62
2023/12/09 03:41:59;;;;;;;19.93;6.07;;;;;;;;;;5038175;28;20442;-62
2023/12/09 03:44:24;;;;;;;24.65;6.03;;;;;;;;;;5020570;28;20391;-62
2023/12/09 03:46:50;;;;;;;21.83;6.00;;;;;;;;;;5018641;28;20965;-62
2023/12/09 03:49:15;;;;;;;19.63;6.00;;;;;;;;;;5012320;28;20441;-62
2023/12/09 03:51:40;;;;;;;17.67;5.17;;;;;;;;;;5013736;28;20435;-62
2023/12/09 03:54:06;;;;;;;19.00;5.93;;;;;;;;;;5014516;28;20449;-62
2023/12/09 03:56:31;;;;;;;18.40;5.47;;;;;;;;;;5039875;28;20454;-62
2023/12/09 03:58:56;;;;;;;18.67;5.73;;;;;;;;;;5040316;28;20433;-62
2023/12/09 04:01:24;;;;;;;18.80;5.30;;;;;;;;;;5029409;28;20395;-62
2023/12/09 04:03:49;;;;;;;17.67;5.22;;;;;;;;;;5039369;28;20876;-62
2023/12/09 04:06:15;;;;;;;19.33;5.57;;;;;;;;;;5019962;28;20540;-62
2023/12/09 04:08:40;;;;;;;20.27;5.70;;;;;;;;;;5036541;28;20413;-62
2023/12/09 04:11:06;;;;;;;21.43;5.73;;;;;;;;;;5012297;28;20465;-62
2023/12/09 04:13:31;;;;;;;21.90;6.27;;;;;;;;;;5013833;28;20778;-62
2023/12/09 04:15:56;;;;;;;19.90;5.40;;;;;;;;;;5031655;28;21064;-61
2023/12/09 04:18:21;;;;;;;20.88;5.32;;;;;;;;;;5039009;28;20480;-62
2023/12/09 04:20:47;;;;;;;21.33;5.90;;;;;;;;;;5029304;28;20392;-62
2023/12/09 04:23:12;;;;;;;19.70;6.00;;;;;;;;;;5018832;28;20411;-62
2023/12/09 04:25:37;;;;;;;18.70;5.50;;;;;;;;;;5020198;28;20894;-62
2023/12/09 04:28:03;;;;;;;22.60;6.03;;;;;;;;;;5014788;28;20490;-62
2023/12/09 04:30:28;;;;;;;21.85;5.20;;;;;;;;;;5019712;28;20399;-62
2023/12/09 04:32:53;;;;;;;17.37;5.57;;;;;;;;;;5034591;28;20748;-61
2023/12/09 04:35:18;;;;;;;21.00;5.47;;;;;;;;;;5022821;28;20637;-61
2023/12/09 04:37:44;;;;;;;19.13;5.53;;;;;;;;;;5011525;28;20395;-61
2023/12/09 04:40:10;;;;;;;22.20;5.80;;;;;;;;;;5016862;28;20399;-62
2023/12/09 04:42:36;;;;;;;21.03;5.20;;;;;;;;;;5020258;28;20731;-61
2023/12/09 04:45:01;;;;;;;16.33;4.97;;;;;;;;;;5019082;28;20465;-62
2023/12/09 04:47:26;;;;;;;25.13;5.43;;;;;;;;;;5034087;28;20405;-61
2023/12/09 04:49:52;;;;;;;17.45;4.93;;;;;;;;;;5047851;28;20514;-61
2023/12/09 04:52:17;;;;;;;19.77;5.23;;;;;;;;;;5049754;28;20923;-61
2023/12/09 04:54:42;;;;;;;18.47;4.80;;;;;;;;;;5053517;28;20904;-61
2023/12/09 04:57:08;;;;;;;18.77;4.87;;;;;;;;;;5052909;28;20910;-61
2023/12/09 04:59:33;;;;;;;16.73;5.45;;;;;;;;;;5053142;28;20386;-61
2023/12/09 05:01:58;;;;;;;20.90;5.43;;;;;;;;;;5049008;28;20412;-61
2023/12/09 05:04:24;;;;;;;18.93;5.40;;;;;;;;;;5023514;28;20417;-61
2023/12/09 05:06:49;;;;;;;15.43;5.07;;;;;;;;;;5024643;28;20961;-61
2023/12/09 05:09:14;;;;;;;19.73;5.50;;;;;;;;;;5023268;28;20427;-61
2023/12/09 05:11:39;;;;;;;19.92;5.10;;;;;;;;;;5016139;28;20886;-61
2023/12/09 05:14:05;;;;;;;18.00;5.33;;;;;;;;;;5015006;28;20409;-62
2023/12/09 05:16:31;;;;;;;16.97;4.97;;;;;;;;;;5016100;28;20513;-61
2023/12/09 05:18:56;;;;;;;17.67;4.90;;;;;;;;;;5042338;28;20404;-61
2023/12/09 05:21:21;;;;;;;22.37;5.30;;;;;;;;;;5042041;28;20389;-61
2023/12/09 05:23:47;;;;;;;19.23;5.40;;;;;;;;;;5043190;28;21086;-61
2023/12/09 05:26:22;;;;;;;19.90;5.07;;;;;;;;;;5037399;28;21102;-62
2023/12/09 05:28:48;;;;;;;18.15;4.78;;;;;;;;;;5042603;28;20385;-61
2023/12/09 05:31:13;;;;;;;17.50;4.80;;;;;;;;;;5042263;28;20462;-62
2023/12/09 05:33:39;;;;;;;20.83;5.67;;;;;;;;;;5037682;28;20785;-61
2023/12/09 05:36:05;;;;;;;22.52;5.72;;;;;;;;;;5020015;28;20409;-62
2023/12/09 05:38:30;;;;;;;19.97;5.47;;;;;;;;;;5014729;28;20403;-62
2023/12/09 05:40:55;;;;;;;24.00;8.75;;;;;;;;;;5020318;28;20414;-61
2023/12/09 05:43:21;;;;;;;22.20;6.63;;;;;;;;;;5022663;28;20399;-61
2023/12/09 05:45:47;;;;;;;17.87;4.90;;;;;;;;;;5023154;28;20923;-62
2023/12/09 05:48:12;;;;;;;18.80;5.72;;;;;;;;;;5039133;28;20402;-62
2023/12/09 05:50:37;;;;;;;19.33;5.03;;;;;;;;;;5025843;28;20456;-61
2023/12/09 05:53:03;;;;;;;17.47;5.10;;;;;;;;;;5027033;28;20438;-62
2023/12/09 05:55:28;;;;;;;16.73;4.88;;;;;;;;;;5019035;28;20793;-62
2023/12/09 05:57:53;;;;;;;19.53;5.33;;;;;;;;;;5015499;28;20409;-61
2023/12/09 06:00:18;;;;;;;16.37;4.73;;;;;;;;;;5014661;28;20493;-61
2023/12/09 06:02:44;;;;;;;18.07;5.37;;;;;;;;;;5030089;28;20429;-61
2023/12/09 06:05:09;;;;;;;15.00;4.23;;;;;;;;;;5041798;28;20397;-62
2023/12/09 06:07:34;;;;;;;18.07;5.13;;;;;;;;;;5042123;28;20393;-61
2023/12/09 06:10:00;;;;;;;18.50;4.70;;;;;;;;;;5030776;28;20415;-61
2023/12/09 06:12:25;;;;;;;17.60;4.50;;;;;;;;;;5022525;28;20396;-61
2023/12/09 06:14:51;;;;;;;17.83;4.63;;;;;;;;;;5022385;28;20403;-61
2023/12/09 06:17:17;;;;;;;18.65;5.32;;;;;;;;;;5021521;28;20418;-61
2023/12/09 06:19:42;;;;;;;16.63;5.00;;;;;;;;;;5034594;28;20397;-61
2023/12/09 06:22:08;;;;;;;21.55;6.20;;;;;;;;;;5033394;28;20436;-62
2023/12/09 06:24:33;;;;;;;20.23;6.13;;;;;;;;;;5032222;28;20476;-61
2023/12/09 06:26:58;;;;;;;18.80;5.20;;;;;;;;;;5017988;28;20440;-62
2023/12/09 06:29:24;;;;;;;18.60;5.77;;;;;;;;;;5041177;28;20390;-62
2023/12/09 06:31:49;;;;;;;18.17;4.93;;;;;;;;;;5030134;28;20913;-61
2023/12/09 06:34:14;;;;;;;18.42;5.40;;;;;;;;;;5022012;28;20861;-62
2023/12/09 06:36:39;;;;;;;17.63;5.37;;;;;;;;;;5021363;28;20674;-61
2023/12/09 06:39:05;;;;;;;19.87;6.60;;;;;;;;;;5026005;28;20900;-61
2023/12/09 06:41:30;;;;;;;19.35;5.07;;;;;;;;;;5036234;28;20397;-61
2023/12/09 06:43:56;;;;;;;17.23;5.00;;;;;;;;;;5040093;28;20811;-61
2023/12/09 06:46:21;;;;;;;17.93;5.50;;;;;;;;;;5049981;28;20806;-61
2023/12/09 06:48:46;;;;;;;18.77;5.37;;;;;;;;;;5051306;28;20397;-61
2023/12/09 06:51:14;;;;;;;22.03;7.23;;;;;;;;;;5050494;28;20405;-62
2023/12/09 06:53:39;;;;;;;20.02;6.05;;;;;;;;;;5051779;28;20390;-61
2023/12/09 06:56:06;;;;;;;18.90;5.20;;;;;;;;;;5050607;28;20760;-62
2023/12/09 06:58:31;;;;;;;16.13;4.23;;;;;;;;;;5062109;28;20399;-61
2023/12/09 07:00:56;;;;;;;17.13;4.40;;;;;;;;;;5064285;28;20412;-61
2023/12/09 07:03:21;;;;;;;16.70;4.70;;;;;;;;;;5050651;28;20401;-61
2023/12/09 07:05:47;;;;;;;15.47;4.30;;;;;;;;;;5050630;28;20401;-61
2023/12/09 07:08:12;;;;;;;15.43;4.03;;;;;;;;;;5045401;28;20428;-61
2023/12/09 07:10:37;;;;;;;15.57;4.22;;;;;;;;;;5013800;28;20823;-61
2023/12/09 07:13:04;;;;;;;20.47;4.73;;;;;;;;;;5016379;28;20403;-62
2023/12/09 07:15:30;;;;;;;14.40;3.78;;;;;;;;;;5040483;28;20575;-61
2023/12/09 07:17:55;;;;;;;15.80;3.90;;;;;;;;;;5040321;28;20480;-61
2023/12/09 07:20:20;;;;;;;15.33;3.73;;;;;;;;;;5040462;28;20896;-61
2023/12/09 07:22:46;;;;;;;15.98;3.72;;;;;;;;;;5040669;28;20885;-62
2023/12/09 07:25:11;;;;;;;14.23;4.00;;;;;;;;;;5040428;28;20389;-62
2023/12/09 07:27:36;;;;;;;12.80;3.60;;;;;;;;;;5033976;28;21042;-61
2023/12/09 07:30:02;;;;;;;15.70;3.77;;;;;;;;;;5032626;28;20462;-62
2023/12/09 07:32:27;;;;;;;14.32;3.20;;;;;;;;;;5032618;28;20409;-61
2023/12/09 07:34:52;;;;;;;14.50;4.17;;;;;;;;;;5029047;28;20518;-61
2023/12/09 07:37:18;;;;;;;15.57;3.40;;;;;;;;;;5025407;28;20857;-61
2023/12/09 07:39:43;;;;;;;15.50;3.73;;;;;;;;;;5040120;28;20401;-61
2023/12/09 07:42:08;;;;;;;16.70;3.63;;;;;;;;;;5039169;28;20450;-62
2023/12/09 07:44:34;;;;;;;15.10;3.10;;;;;;;;;;5029757;28;20954;-61
2023/12/09 07:46:59;;;;;;;14.70;3.50;;;;;;;;;;5020737;28;20451;-61
2023/12/09 07:49:24;;;;;;;12.23;3.13;;;;;;;;;;5020460;28;20431;-61
2023/12/09 07:51:50;;;;;;;14.53;3.03;;;;;;;;;;5015405;28;20797;-61
2023/12/09 07:54:15;;;;;;;14.70;3.40;;;;;;;;;;5011554;28;20476;-62
2023/12/09 07:56:40;;;;;;;15.77;3.33;;;;;;;;;;5012864;28;20774;-61
2023/12/09 07:59:06;;;;;;;13.73;3.37;;;;;;;;;;5018192;28;20474;-62
2023/12/09 08:01:31;;;;;;;14.27;3.27;;;;;;;;;;5036823;28;20389;-62
2023/12/09 08:03:56;;;;;;;15.05;3.20;;;;;;;;;;5048874;28;20489;-62
2023/12/09 08:06:22;;;;;;;13.77;2.90;;;;;;;;;;5051542;28;20405;-61
2023/12/09 08:08:50;;;;;;;13.43;3.27;;;;;;;;;;5049408;28;20405;-62
2023/12/09 08:11:16;;;;;;;13.77;3.45;;;;;;;;;;5048809;28;20421;-62
2023/12/09 08:13:42;;;;;;;13.37;3.47;;;;;;;;;;5051796;28;20396;-61
2023/12/09 08:16:08;;;;;;;11.02;2.92;;;;;;;;;;5054258;28;20401;-62
2023/12/09 08:18:33;;;;;;;12.33;3.00;;;;;;;;;;5049738;28;20377;-60
2023/12/09 08:20:59;;;;;;;14.80;3.83;;;;;;;;;;5049143;28;20447;-61
2023/12/09 08:23:24;;;;;;;11.98;3.05;;;;;;;;;;5047860;28;20406;-61
2023/12/09 08:25:50;;;;;;;13.67;3.20;;;;;;;;;;5049156;28;20397;-61
2023/12/09 08:28:15;;;;;;;15.40;3.30;;;;;;;;;;5043194;28;20488;-61
2023/12/09 08:30:40;;;;;;;14.90;3.67;;;;;;;;;;5048592;28;20875;-61
2023/12/09 08:33:05;;;;;;;14.10;2.70;;;;;;;;;;5048843;28;20413;-61
2023/12/09 08:35:31;;;;;;;12.77;2.93;;;;;;;;;;5051041;28;20393;-61
2023/12/09 08:37:56;;;;;;;10.40;2.50;;;;;;;;;;5048954;28;20410;-61
2023/12/09 08:40:22;;;;;;;10.73;2.70;;;;;;;;;;5048701;28;20475;-61
2023/12/09 08:42:47;;;;;;;14.83;3.33;;;;;;;;;;5048792;28;20500;-61
2023/12/09 08:45:14;;;;;;;12.40;2.77;;;;;;;;;;5048663;28;20413;-61
2023/12/09 08:47:39;;;;;;;13.80;3.05;;;;;;;;;;5049279;28;20408;-62
2023/12/09 08:50:05;;;;;;;26.00;9.53;;;;;;;;;;5051372;28;20495;-62
2023/12/09 08:52:31;;;;;;;17.27;5.82;;;;;;;;;;5056697;28;20394;-63
2023/12/09 08:54:56;;;;;;;12.45;2.97;;;;;;;;;;5059830;28;20406;-63
2023/12/09 08:57:22;;;;;;;12.53;4.20;;;;;;;;;;5058035;28;20430;-63
2023/12/09 08:59:48;;;;;;;12.80;2.60;;;;;;;;;;5059886;28;20431;-63
2023/12/09 09:02:13;;;;;;;16.13;9.73;;;;;;;;;;5059605;28;20421;-63
2023/12/09 09:04:38;;;;;;;13.20;2.75;;;;;;;;;;5056644;28;20409;-63
2023/12/09 09:07:04;;;;;;;9.97;2.63;;;;;;;;;;5054017;28;20955;-63
2023/12/09 09:09:29;;;;;;;11.63;3.40;;;;;;;;;;5061941;28;20415;-63
2023/12/09 09:11:54;;;;;;;11.63;2.70;;;;;;;;;;5055775;28;20402;-61
2023/12/09 09:14:19;;;;;;;11.63;2.83;;;;;;;;;;5049278;28;20362;-63
2023/12/09 09:16:45;;;;;;;12.43;2.93;;;;;;;;;;5048469;28;20463;-62
2023/12/09 09:19:10;;;;;;;11.77;2.80;;;;;;;;;;5048269;28;20923;-61
2023/12/09 09:21:35;;;;;;;12.63;2.60;;;;;;;;;;5049070;28;20402;-61
2023/12/09 09:24:01;;;;;;;11.10;2.50;;;;;;;;;;5047952;28;20405;-62
2023/12/09 09:26:26;;;;;;;11.17;2.50;;;;;;;;;;5043244;28;20435;-62
2023/12/09 09:28:51;;;;;;;10.17;2.67;;;;;;;;;;5048629;28;20406;-63
2023/12/09 09:31:17;;;;;;;10.27;3.00;;;;;;;;;;5047933;28;20409;-63
2023/12/09 09:33:42;;;;;;;12.33;2.60;;;;;;;;;;5048208;28;20397;-62
2023/12/09 09:36:08;;;;;;;9.47;2.70;;;;;;;;;;5049806;28;20408;-62
2023/12/09 09:38:33;;;;;;;12.05;2.40;;;;;;;;;;5050234;28;20409;-61
2023/12/09 09:40:59;;;;;;;12.18;2.47;;;;;;;;;;5052299;28;20507;-61
2023/12/09 09:43:25;;;;;;;10.67;2.60;;;;;;;;;;5052308;28;20389;-61
2023/12/09 09:45:50;;;;;;;10.20;2.55;;;;;;;;;;5052698;28;20484;-61
2023/12/09 09:48:16;;;;;;;11.03;2.50;;;;;;;;;;5045590;28;20397;-62
2023/12/09 09:50:44;;;;;;;12.43;2.28;;;;;;;;;;5052451;28;20398;-61
2023/12/09 09:53:09;;;;;;;10.80;2.75;;;;;;;;;;5051877;28;20488;-61
2023/12/09 09:55:35;;;;;;;10.10;2.30;;;;;;;;;;5033882;28;21013;-61
2023/12/09 09:58:01;;;;;;;8.93;2.50;;;;;;;;;;5051436;28;20975;-62
2023/12/09 10:00:28;;;;;;;10.47;2.27;;;;;;;;;;5051587;28;20548;-61
2023/12/09 10:02:53;;;;;;;9.97;2.10;;;;;;;;;;5051213;28;20404;-61
2023/12/09 10:05:20;;;;;;;10.10;2.30;;;;;;;;;;5051003;28;20402;-61
2023/12/09 10:07:45;;;;;;;10.80;2.08;;;;;;;;;;5050502;28;20892;-62
2023/12/09 10:10:11;;;;;;;10.10;2.20;;;;;;;;;;5049163;28;20719;-62
2023/12/09 10:12:36;;;;;;;9.70;2.20;;;;;;;;;;5048780;28;20903;-62
2023/12/09 10:15:02;;;;;;;10.23;2.23;;;;;;;;;;5050984;28;20410;-63
2023/12/09 10:17:28;;;;;;;10.38;2.70;;;;;;;;;;5050716;28;20405;-62
2023/12/09 10:19:54;;;;;;;11.77;2.90;;;;;;;;;;5050112;28;20400;-62
2023/12/09 10:22:19;;;;;;;9.18;2.60;;;;;;;;;;5033055;28;20408;-62
2023/12/09 10:24:51;;;;;;;10.80;2.67;;;;;;;;;;5051981;28;20398;-62
2023/12/09 10:27:18;;;;;;;9.88;2.47;;;;;;;;;;5046280;28;20405;-61
2023/12/09 10:29:43;;;;;;;10.63;2.40;;;;;;;;;;5049047;28;20456;-62
2023/12/09 10:32:09;;;;;;;10.73;2.33;;;;;;;;;;5051237;28;20417;-62
2023/12/09 10:34:34;;;;;;;12.30;2.33;;;;;;;;;;5033729;28;20910;-62
2023/12/09 10:36:59;;;;;;;10.30;2.27;;;;;;;;;;5051042;28;20408;-62
2023/12/09 10:39:25;;;;;;;12.10;2.50;;;;;;;;;;5051273;28;20397;-62
2023/12/09 10:41:50;;;;;;;9.60;2.20;;;;;;;;;;5051752;28;20397;-62
2023/12/09 10:44:15;;;;;;;9.03;2.20;;;;;;;;;;5050686;28;20409;-62
2023/12/09 10:46:41;;;;;;;11.43;2.63;;;;;;;;;;5051196;28;20754;-62
2023/12/09 10:49:07;;;;;;;7.73;2.17;;;;;;;;;;5050402;28;20969;-63
2023/12/09 10:51:32;;;;;;;7.80;1.92;;;;;;;;;;5050330;28;20401;-62
2023/12/09 10:53:57;;;;;;;9.83;2.50;;;;;;;;;;5051466;28;20404;-62
2023/12/09 10:56:23;;;;;;;11.03;2.40;;;;;;;;;;5051122;28;20421;-67
2023/12/09 10:58:48;;;;;;;9.47;2.27;;;;;;;;;;5050926;28;20393;-67
2023/12/09 11:01:15;;;;;;;11.13;2.60;;;;;;;;;;5032602;28;20402;-68
2023/12/09 11:03:40;;;;;;;11.65;2.53;;;;;;;;;;5050906;28;20390;-65
2023/12/09 11:06:06;;;;;;;9.45;2.00;;;;;;;;;;5050270;28;20731;-65
2023/12/09 11:08:31;;;;;;;8.43;2.30;;;;;;;;;;5050891;28;20409;-66
2023/12/09 11:10:56;;;;;;;8.73;2.10;;;;;;;;;;5050618;28;20417;-66
2023/12/09 11:13:29;;;;;;;8.37;1.90;;;;;;;;;;5032823;28;20450;-65
2023/12/09 11:16:07;;;;;;;9.20;2.13;;;;;;;;;;5048457;28;20419;-66
2023/12/09 11:18:33;;;;;;;9.77;2.17;;;;;;;;;;5015941;28;20387;-65
2023/12/09 11:20:58;;;;;;;9.47;2.20;;;;;;;;;;5031517;28;20461;-67
2023/12/09 11:23:23;;;;;;;9.93;2.20;;;;;;;;;;5041828;28;20455;-66
2023/12/09 11:25:48;;;;;;;7.70;2.13;;;;;;;;;;5023625;28;21017;-66
2023/12/09 11:28:14;;;;;;;8.73;2.30;;;;;;;;;;5024995;28;20417;-66
2023/12/09 11:30:40;;;;;;;10.63;2.47;;;;;;;;;;5024622;28;20419;-66
2023/12/09 11:33:06;;;;;;;8.82;2.30;;;;;;;;;;5006525;28;20937;-65
2023/12/09 11:35:32;;;;;;;9.43;2.50;;;;;;;;;;5035645;28;20461;-64
2023/12/09 11:37:57;;;;;;;10.45;2.60;;;;;;;;;;5022856;28;20399;-65
2023/12/09 11:40:23;;;;;;;8.97;2.47;;;;;;;;;;5024466;28;20406;-65
2023/12/09 11:42:49;;;;;;;9.57;2.28;;;;;;;;;;5025233;28;20921;-64
2023/12/09 11:45:14;;;;;;;8.77;2.20;;;;;;;;;;5027140;28;20449;-64
2023/12/09 11:47:39;;;;;;;7.33;2.20;;;;;;;;;;5023861;28;20493;-65
2023/12/09 11:50:06;;;;;;;9.20;2.20;;;;;;;;;;5023501;28;20423;-65
2023/12/09 11:52:31;;;;;;;11.30;2.28;;;;;;;;;;5018587;28;20416;-64
2023/12/09 11:55:04;;;;;;;9.32;2.05;;;;;;;;;;5043598;28;20389;-65
2023/12/09 11:57:29;;;;;;;10.05;2.55;;;;;;;;;;5043176;28;20664;-65
2023/12/09 11:59:55;;;;;;;8.98;2.22;;;;;;;;;;5044165;28;20417;-65
2023/12/09 12:02:20;;;;;;;8.93;2.70;;;;;;;;;;5024245;28;20414;-64
2023/12/09 12:04:46;;;;;;;10.70;2.50;;;;;;;;;;5025342;28;20404;-65
2023/12/09 12:07:11;;;;;;;11.53;2.73;;;;;;;;;;5024681;28;20882;-66
2023/12/09 12:09:38;;;;;;;9.10;2.40;;;;;;;;;;5025373;28;20433;-65
2023/12/09 12:12:04;;;;;;;9.77;2.30;;;;;;;;;;5026422;28;20405;-64
2023/12/09 12:14:31;;;;;;;10.48;2.50;;;;;;;;;;5026351;28;20387;-66
2023/12/09 12:16:56;;;;;;;10.03;2.33;;;;;;;;;;5026485;28;20403;-65
2023/12/09 12:19:22;;;;;;;9.73;2.50;;;;;;;;;;5026354;28;20399;-66
2023/12/09 12:21:52;;;;;;;9.23;2.20;;;;;;;;;;5025878;28;20983;-65
2023/12/09 12:24:18;;;;;;;10.20;2.47;;;;;;;;;;5025488;28;20914;-65
2023/12/09 12:26:43;;;;;;;8.63;2.40;;;;;;;;;;5026945;28;20464;-66
2023/12/09 12:29:09;;;;;;;8.65;2.10;;;;;;;;;;5026621;28;20395;-67
2023/12/09 12:31:34;;;;;;;7.87;2.57;;;;;;;;;;5024546;28;20403;-66
2023/12/09 12:34:12;;;;;;;8.73;2.35;;;;;;;;;;5024761;28;20407;-68
2023/12/09 12:36:38;;;;;;;10.00;2.45;;;;;;;;;;5024578;28;20409;-66
2023/12/09 12:39:04;;;;;;;8.75;2.40;;;;;;;;;;5018305;28;20457;-65
2023/12/09 12:41:30;;;;;;;11.52;3.10;;;;;;;;;;5024555;28;20399;-65
2023/12/09 12:43:55;;;;;;;8.67;2.60;;;;;;;;;;5019665;28;20472;-65
2023/12/09 12:46:21;;;;;;;9.33;2.40;;;;;;;;;;5002881;28;64917;-65
2023/12/09 12:48:46;;;;;;;8.97;3.03;;;;;;;;;;4997408;28;20464;-65
2023/12/09 12:51:11;;;;;;;9.17;2.27;;;;;;;;;;5003266;28;20436;-65
2023/12/09 12:53:37;;;;;;;9.82;2.58;;;;;;;;;;5005150;28;20403;-65
2023/12/09 12:56:02;;;;;;;7.37;2.30;;;;;;;;;;5005268;28;20440;-65
2023/12/09 12:58:29;;;;;;;8.38;2.30;;;;;;;;;;5006358;28;20441;-66
2023/12/09 13:00:54;;;;;;;9.23;2.30;;;;;;;;;;5004007;28;21016;-66
2023/12/09 13:03:20;;;;;;;8.17;2.10;;;;;;;;;;5004726;28;20505;-65
2023/12/09 13:05:45;;;;;;;9.38;2.58;;;;;;;;;;4990152;28;20409;-65
2023/12/09 13:08:10;;;;;;;8.20;2.20;;;;;;;;;;4983065;28;20484;-65
2023/12/09 13:10:36;;;;;;;10.00;2.63;;;;;;;;;;4985935;28;20422;-65
2023/12/09 13:13:01;;;;;;;9.73;2.25;;;;;;;;;;4987997;28;20402;-64
2023/12/09 13:15:27;;;;;;;9.60;2.43;;;;;;;;;;4966311;28;68627;-65
2023/12/09 13:17:52;;;;;;;8.93;2.53;;;;;;;;;;4989032;28;20406;-65
2023/12/09 13:20:17;;;;;;;9.47;2.40;;;;;;;;;;4987749;28;20494;-65
2023/12/09 13:22:45;;;;;;;8.43;2.57;;;;;;;;;;4989819;28;20437;-65
2023/12/09 13:25:11;;;;;;;10.33;2.50;;;;;;;;;;4988936;28;20411;-65
2023/12/09 13:27:37;;;;;;;10.43;2.35;;;;;;;;;;4987049;28;20757;-65
2023/12/09 13:30:06;;;;;;;8.38;2.38;;;;;;;;;;4988545;28;20504;-64
2023/12/09 13:32:31;;;;;;;8.73;2.13;;;;;;;;;;4987189;28;20410;-66
2023/12/09 13:34:56;;;;;;;9.03;2.40;;;;;;;;;;4988203;28;20398;-65
2023/12/09 13:37:22;;;;;;;8.30;2.30;;;;;;;;;;4987173;28;20402;-65
2023/12/09 13:39:47;;;;;;;10.03;2.33;;;;;;;;;;4987669;28;20409;-66
2023/12/09 13:42:12;;;;;;;9.63;2.37;;;;;;;;;;4986170;28;21259;-66
2023/12/09 13:44:38;;;;;;;9.80;2.10;;;;;;;;;;4987810;28;20406;-66
2023/12/09 13:47:04;;;;;;;8.40;2.00;;;;;;;;;;4986890;28;20410;-65
2023/12/09 13:49:29;;;;;;;7.40;1.98;;;;;;;;;;4980960;28;20995;-66
2023/12/09 13:51:54;;;;;;;9.03;2.00;;;;;;;;;;4988032;28;20441;-66
2023/12/09 13:54:22;;;;;;;8.07;2.10;;;;;;;;;;4984777;28;20856;-66
2023/12/09 13:56:48;;;;;;;8.55;1.95;;;;;;;;;;4994485;28;20776;-66
2023/12/09 13:59:13;;;;;;;7.93;2.08;;;;;;;;;;5005562;28;20412;-66
2023/12/09 14:01:38;;;;;;;7.37;1.80;;;;;;;;;;4993470;28;20415;-66
2023/12/09 14:04:05;;;;;;;7.07;2.20;;;;;;;;;;4986597;28;20449;-66
2023/12/09 14:06:31;;;;;;;8.60;2.30;;;;;;;;;;4988432;28;20981;-67
2023/12/09 14:08:56;;;;;;;9.40;2.00;;;;;;;;;;4987134;28;20453;-67
2023/12/09 14:11:22;;;;;;;8.18;1.92;;;;;;;;;;4986587;28;20505;-67
2023/12/09 14:13:48;;;;;;;7.05;1.80;;;;;;;;;;4987380;28;20421;-68
2023/12/09 14:16:13;;;;;;;7.63;1.80;;;;;;;;;;4986087;28;20399;-67
2023/12/09 14:18:39;;;;;;;8.50;2.00;;;;;;;;;;4987303;28;20426;-67
2023/12/09 14:21:06;;;;;;;7.10;2.03;;;;;;;;;;4986427;28;20412;-67
2023/12/09 14:23:31;;;;;;;8.27;2.00;;;;;;;;;;4987018;28;20394;-67